createdAt,value
2018-04-30T00:00:36.190Z,8.77
2018-04-30T00:03:40.361Z,7.00
2018-04-30T00:06:43.677Z,7.57
2018-04-30T00:09:47.067Z,6.93
2018-04-30T00:12:51.096Z,6.33
2018-04-30T00:15:55.908Z,5.67
2018-04-30T00:18:59.225Z,5.83
2018-04-30T00:22:02.548Z,6.00
2018-04-30T00:25:05.911Z,5.37
2018-04-30T00:28:09.304Z,5.40
2018-04-30T00:31:12.669Z,6.93
2018-04-30T00:34:16.005Z,5.67
2018-04-30T00:37:19.410Z,7.07
2018-04-30T00:40:22.812Z,5.43
2018-04-30T00:43:26.210Z,6.93
2018-04-30T00:46:29.601Z,5.23
2018-04-30T00:49:33.011Z,5.10
2018-04-30T00:52:36.410Z,5.47
2018-04-30T00:55:39.814Z,5.40
2018-04-30T00:58:43.215Z,6.57
2018-04-30T01:01:46.705Z,6.10
2018-04-30T01:04:50.003Z,5.50
2018-04-30T01:07:53.332Z,6.00
2018-04-30T01:10:56.696Z,6.03
2018-04-30T01:14:00.024Z,7.47
2018-04-30T01:17:03.409Z,5.60
2018-04-30T01:20:06.816Z,6.67
2018-04-30T01:23:10.132Z,6.57
2018-04-30T01:26:14.200Z,7.33
2018-04-30T01:29:17.618Z,6.57
2018-04-30T01:32:20.945Z,8.70
2018-04-30T01:35:24.307Z,8.00
2018-04-30T01:38:27.621Z,6.80
2018-04-30T01:41:31.061Z,7.03
2018-04-30T01:44:34.346Z,5.43
2018-04-30T01:47:38.429Z,5.60
2018-04-30T01:50:41.824Z,6.63
2018-04-30T01:53:45.150Z,7.00
2018-04-30T01:56:48.489Z,6.07
2018-04-30T01:59:51.798Z,5.20
2018-04-30T02:02:55.141Z,6.00
2018-04-30T02:05:58.522Z,5.67
2018-04-30T02:09:01.925Z,8.23
2018-04-30T02:12:05.318Z,6.77
2018-04-30T02:15:08.713Z,6.97
2018-04-30T02:18:12.041Z,7.00
2018-04-30T02:21:16.108Z,7.57
2018-04-30T02:24:19.532Z,9.50
2018-04-30T02:27:22.932Z,6.73
2018-04-30T02:30:26.238Z,9.37
2018-04-30T02:33:29.594Z,10.50
2018-04-30T02:36:32.931Z,7.37
2018-04-30T02:39:36.324Z,8.83
2018-04-30T02:42:39.639Z,7.87
2018-04-30T02:45:43.033Z,10.27
2018-04-30T02:48:46.430Z,11.53
2018-04-30T02:51:49.818Z,11.13
2018-04-30T02:54:53.245Z,14.23
2018-04-30T02:57:56.621Z,14.43
2018-04-30T03:00:59.943Z,14.60
2018-04-30T03:04:03.326Z,15.73
2018-04-30T03:07:06.650Z,15.20
2018-04-30T03:10:10.030Z,13.13
2018-04-30T03:13:13.424Z,13.50
2018-04-30T03:16:16.725Z,12.57
2018-04-30T03:19:20.112Z,10.87
2018-04-30T03:22:23.530Z,12.07
2018-04-30T03:25:26.850Z,13.07
2018-04-30T03:28:30.173Z,12.00
2018-04-30T03:31:33.513Z,13.57
2018-04-30T03:34:36.838Z,13.87
2018-04-30T03:37:40.158Z,16.43
2018-04-30T03:40:44.328Z,14.97
2018-04-30T03:43:47.728Z,15.40
2018-04-30T03:46:51.139Z,14.30
2018-04-30T03:49:54.538Z,15.50
2018-04-30T03:52:57.865Z,22.80
2018-04-30T03:56:01.940Z,14.07
2018-04-30T03:59:05.266Z,16.57
2018-04-30T04:02:26.457Z,19.13
2018-04-30T04:05:47.786Z,16.40
2018-04-30T04:08:51.168Z,20.17
2018-04-30T04:11:54.568Z,17.77
2018-04-30T04:14:57.901Z,16.67
2018-04-30T04:18:01.221Z,20.30
2018-04-30T04:21:05.389Z,21.43
2018-04-30T04:24:08.793Z,18.90
2018-04-30T04:27:12.099Z,19.53
2018-04-30T04:30:15.416Z,20.23
2018-04-30T04:33:18.734Z,20.10
2018-04-30T04:36:23.208Z,25.57
2018-04-30T04:39:26.617Z,21.27
2018-04-30T04:42:30.016Z,23.37
2018-04-30T04:45:33.416Z,27.20
2018-04-30T04:48:36.746Z,23.67
2018-04-30T04:51:41.640Z,26.07
2018-04-30T04:54:45.041Z,28.87
2018-04-30T04:57:48.361Z,29.83
2018-04-30T05:00:51.701Z,30.80
2018-04-30T05:03:55.043Z,31.27
2018-04-30T05:06:58.448Z,35.53
2018-04-30T05:10:01.862Z,33.13
2018-04-30T05:13:05.241Z,37.37
2018-04-30T05:16:08.636Z,34.77
2018-04-30T05:19:11.968Z,35.33
2018-04-30T05:22:15.290Z,37.40
2018-04-30T05:25:19.474Z,36.67
2018-04-30T05:28:22.917Z,40.97
2018-04-30T05:31:26.231Z,38.47
2018-04-30T05:34:29.552Z,42.27
2018-04-30T05:37:32.954Z,38.03
2018-04-30T05:40:36.294Z,37.37
2018-04-30T05:43:40.395Z,36.93
2018-04-30T05:46:43.787Z,35.77
2018-04-30T05:49:47.170Z,33.23
2018-04-30T05:52:50.491Z,29.73
2018-04-30T05:55:53.804Z,32.07
2018-04-30T05:58:57.903Z,35.57
2018-04-30T06:02:01.283Z,31.83
2018-04-30T06:05:04.632Z,34.13
2018-04-30T06:08:08.794Z,27.83
2018-04-30T06:11:12.212Z,32.73
2018-04-30T06:14:15.548Z,27.60
2018-04-30T06:17:19.625Z,32.03
2018-04-30T06:20:23.009Z,27.83
2018-04-30T06:23:27.232Z,29.97
2018-04-30T06:26:30.638Z,27.53
2018-04-30T06:29:34.030Z,29.23
2018-04-30T06:32:37.489Z,31.43
2018-04-30T06:35:40.837Z,29.13
2018-04-30T06:38:44.175Z,33.00
2018-04-30T06:41:48.373Z,32.23
2018-04-30T06:44:51.757Z,29.77
2018-04-30T06:47:55.077Z,30.30
2018-04-30T06:50:58.411Z,35.00
2018-04-30T06:54:01.721Z,31.10
2018-04-30T06:57:05.149Z,30.40
2018-04-30T07:00:08.465Z,31.30
2018-04-30T07:03:11.837Z,35.13
2018-04-30T07:06:15.261Z,38.70
2018-04-30T07:09:18.707Z,33.93
2018-04-30T07:12:22.032Z,35.13
2018-04-30T07:15:25.369Z,31.90
2018-04-30T07:18:28.682Z,29.90
2018-04-30T07:21:32.845Z,30.83
2018-04-30T07:24:36.159Z,31.80
2018-04-30T07:27:39.563Z,33.27
2018-04-30T07:30:43.673Z,34.50
2018-04-30T07:33:47.072Z,29.17
2018-04-30T07:36:50.393Z,29.77
2018-04-30T07:39:53.762Z,30.03
2018-04-30T07:42:57.181Z,29.93
2018-04-30T07:46:00.521Z,39.23
2018-04-30T07:49:03.871Z,38.13
2018-04-30T07:52:07.286Z,33.03
2018-04-30T07:55:10.661Z,40.23
2018-04-30T07:58:14.058Z,37.60
2018-04-30T08:01:17.473Z,42.67
2018-04-30T08:04:20.866Z,38.73
2018-04-30T08:07:24.176Z,39.57
2018-04-30T08:10:27.569Z,38.87
2018-04-30T08:13:30.966Z,39.57
2018-04-30T08:16:34.355Z,42.23
2018-04-30T08:19:37.718Z,46.67
2018-04-30T08:22:41.061Z,54.77
2018-04-30T08:25:44.457Z,49.20
2018-04-30T08:28:47.987Z,57.77
2018-04-30T08:31:51.368Z,55.47
2018-04-30T08:34:54.691Z,60.33
2018-04-30T08:37:58.052Z,59.43
2018-04-30T08:41:01.399Z,63.00
2018-04-30T08:44:05.670Z,58.73
2018-04-30T08:47:09.012Z,50.50
2018-04-30T08:50:12.326Z,60.47
2018-04-30T08:53:16.608Z,54.57
2018-04-30T08:56:20.020Z,60.20
2018-04-30T08:59:23.397Z,53.03
2018-04-30T09:02:26.722Z,57.00
2018-04-30T09:05:30.825Z,58.70
2018-04-30T09:08:34.165Z,52.47
2018-04-30T09:11:37.619Z,44.53
2018-04-30T09:14:40.932Z,40.73
2018-04-30T09:17:44.312Z,43.90
2018-04-30T09:20:47.708Z,44.93
2018-04-30T09:23:51.037Z,43.87
2018-04-30T09:26:54.372Z,36.77
2018-04-30T09:29:57.714Z,46.50
2018-04-30T09:33:01.101Z,44.17
2018-04-30T09:36:04.493Z,42.20
2018-04-30T09:39:07.817Z,43.23
2018-04-30T09:42:11.192Z,45.67
2018-04-30T09:45:14.521Z,46.13
2018-04-30T09:48:17.907Z,39.70
2018-04-30T09:51:21.311Z,50.03
2018-04-30T09:54:25.512Z,41.40
2018-04-30T09:57:28.934Z,46.77
2018-04-30T10:00:32.314Z,44.30
2018-04-30T10:03:35.649Z,42.67
2018-04-30T10:06:39.761Z,38.13
2018-04-30T10:09:43.129Z,41.27
2018-04-30T10:12:46.537Z,43.20
2018-04-30T10:15:49.854Z,36.20
2018-04-30T10:18:53.192Z,34.87
2018-04-30T10:21:56.510Z,42.03
2018-04-30T10:24:59.848Z,31.63
2018-04-30T10:28:03.162Z,37.30
2018-04-30T10:31:07.269Z,32.20
2018-04-30T10:34:10.599Z,35.47
2018-04-30T10:37:13.942Z,29.57
2018-04-30T10:40:17.966Z,32.27
2018-04-30T10:43:21.363Z,31.77
2018-04-30T10:46:24.747Z,30.90
2018-04-30T10:49:28.131Z,30.27
2018-04-30T10:52:31.465Z,26.27
2018-04-30T10:55:35.661Z,29.60
2018-04-30T10:58:38.970Z,28.43
2018-04-30T11:01:42.427Z,26.23
2018-04-30T11:04:45.781Z,27.17
2018-04-30T11:07:49.189Z,27.70
2018-04-30T11:10:52.502Z,27.57
2018-04-30T11:13:56.612Z,27.30
2018-04-30T11:17:00.825Z,23.53
2018-04-30T11:20:04.179Z,28.77
2018-04-30T11:23:07.504Z,23.57
2018-04-30T11:26:10.917Z,26.63
2018-04-30T11:29:14.297Z,24.90
2018-04-30T11:32:17.693Z,24.63
2018-04-30T11:35:21.025Z,21.77
2018-04-30T11:38:25.146Z,23.67
2018-04-30T11:41:29.345Z,25.43
2018-04-30T11:44:32.720Z,25.73
2018-04-30T11:47:36.071Z,25.40
2018-04-30T11:50:39.429Z,21.60
2018-04-30T11:53:42.777Z,29.73
2018-04-30T11:56:46.128Z,26.57
2018-04-30T11:59:49.590Z,22.00
2018-04-30T12:02:53.028Z,26.67
2018-04-30T12:05:57.977Z,25.73
2018-04-30T12:09:01.335Z,26.57
2018-04-30T12:12:07.292Z,22.83
2018-04-30T12:15:10.672Z,25.33
2018-04-30T12:18:14.084Z,25.60
2018-04-30T12:21:17.528Z,26.80
2018-04-30T12:24:20.924Z,27.37
2018-04-30T12:27:24.321Z,35.53
2018-04-30T12:30:27.652Z,27.97
2018-04-30T12:33:31.849Z,31.23
2018-04-30T12:36:35.251Z,26.17
2018-04-30T12:39:38.633Z,27.87
2018-04-30T12:42:42.078Z,31.93
2018-04-30T12:45:45.558Z,31.07
2018-04-30T12:48:48.888Z,28.13
2018-04-30T12:51:53.062Z,31.23
2018-04-30T12:54:56.457Z,28.63
2018-04-30T12:57:59.845Z,27.63
2018-04-30T13:01:03.257Z,28.40
2018-04-30T13:04:06.624Z,32.57
2018-04-30T13:07:09.973Z,28.70
2018-04-30T13:10:13.354Z,33.53
2018-04-30T13:13:17.497Z,28.30
2018-04-30T13:16:21.687Z,30.90
2018-04-30T13:19:25.135Z,34.20
2018-04-30T13:22:28.614Z,35.10
2018-04-30T13:25:31.981Z,37.73
2018-04-30T13:28:35.396Z,31.97
2018-04-30T13:31:39.406Z,34.17
2018-04-30T13:34:42.744Z,36.43
2018-04-30T13:37:46.936Z,35.10
2018-04-30T13:40:50.336Z,37.63
2018-04-30T13:43:53.658Z,46.27
2018-04-30T13:46:57.765Z,42.13
2018-04-30T13:50:01.080Z,43.50
2018-04-30T13:53:05.261Z,41.07
2018-04-30T13:56:08.652Z,46.87
2018-04-30T13:59:11.981Z,41.93
2018-04-30T14:02:15.301Z,42.97
2018-04-30T14:05:18.760Z,45.03
2018-04-30T14:08:22.088Z,41.80
2018-04-30T14:11:26.272Z,43.47
2018-04-30T14:14:29.602Z,45.70
2018-04-30T14:17:33.720Z,45.53
2018-04-30T14:20:37.814Z,42.87
2018-04-30T14:23:41.197Z,42.17
2018-04-30T14:26:44.517Z,41.57
2018-04-30T14:29:47.878Z,47.83
2018-04-30T14:32:51.188Z,39.20
2018-04-30T14:35:54.534Z,42.23
2018-04-30T14:38:58.715Z,41.13
2018-04-30T14:42:02.067Z,41.53
2018-04-30T14:45:05.398Z,39.93
2018-04-30T14:48:08.838Z,40.07
2018-04-30T14:51:12.179Z,43.73
2018-04-30T14:54:15.684Z,37.70
2018-04-30T14:57:19.010Z,30.67
2018-04-30T15:00:23.362Z,41.90
2018-04-30T15:03:26.734Z,35.27
2018-04-30T15:06:30.080Z,34.67
2018-04-30T15:09:34.172Z,38.87
2018-04-30T15:12:38.282Z,32.47
2018-04-30T15:15:41.725Z,38.83
2018-04-30T15:18:45.178Z,33.73
2018-04-30T15:21:48.601Z,35.60
2018-04-30T15:24:52.703Z,28.27
2018-04-30T15:27:56.030Z,30.97
2018-04-30T15:31:00.207Z,35.37
2018-04-30T15:34:03.546Z,27.73
2018-04-30T15:37:07.727Z,25.53
2018-04-30T15:40:11.043Z,26.93
2018-04-30T15:43:15.220Z,27.80
2018-04-30T15:46:18.528Z,30.93
2018-04-30T15:49:21.887Z,24.47
2018-04-30T15:52:25.231Z,27.57
2018-04-30T15:55:28.590Z,27.17
2018-04-30T15:58:31.901Z,17.87
2018-04-30T16:01:35.256Z,15.87
2018-04-30T16:04:39.340Z,14.47
2018-04-30T16:07:42.713Z,12.47
2018-04-30T16:10:46.159Z,12.53
2018-04-30T16:13:49.571Z,11.53
2018-04-30T16:16:53.778Z,12.60
2018-04-30T16:19:57.157Z,10.93
2018-04-30T16:23:00.464Z,11.83
2018-04-30T16:26:03.860Z,11.10
2018-04-30T16:29:07.180Z,9.40
2018-04-30T16:32:10.526Z,10.47
2018-04-30T16:35:13.854Z,11.77
2018-04-30T16:38:17.260Z,10.20
2018-04-30T16:41:20.579Z,10.30
2018-04-30T16:44:23.961Z,12.10
2018-04-30T16:47:28.077Z,10.37
2018-04-30T16:50:31.471Z,9.13
2018-04-30T16:53:34.764Z,8.50
2018-04-30T16:56:38.094Z,8.03
2018-04-30T16:59:42.274Z,7.83
2018-04-30T17:02:45.631Z,6.60
2018-04-30T17:05:49.017Z,7.33
2018-04-30T17:08:53.117Z,6.57
2018-04-30T17:11:56.536Z,6.73
2018-04-30T17:14:59.907Z,6.60
2018-04-30T17:18:04.018Z,8.13
2018-04-30T17:21:07.359Z,6.70
2018-04-30T17:24:11.544Z,6.70
2018-04-30T17:27:14.920Z,5.43
2018-04-30T17:30:18.284Z,7.23
2018-04-30T17:33:21.619Z,6.60
2018-04-30T17:36:25.008Z,6.07
2018-04-30T17:39:28.302Z,6.93
2018-04-30T17:42:31.730Z,10.30
2018-04-30T17:45:35.108Z,5.50
2018-04-30T17:48:38.423Z,5.83
2018-04-30T17:51:41.824Z,6.77
2018-04-30T17:54:45.216Z,7.33
2018-04-30T17:57:48.631Z,8.57
2018-04-30T18:00:52.037Z,7.83
2018-04-30T18:03:55.382Z,9.17
2018-04-30T18:06:58.813Z,9.17
2018-04-30T18:10:02.067Z,10.07
2018-04-30T18:13:06.901Z,12.30
2018-04-30T18:16:10.348Z,15.83
2018-04-30T18:19:13.671Z,13.57
2018-04-30T18:22:17.073Z,16.90
2018-04-30T18:25:20.447Z,19.73
2018-04-30T18:28:23.815Z,22.50
2018-04-30T18:31:27.146Z,19.13
2018-04-30T18:34:30.558Z,16.80
2018-04-30T18:37:34.656Z,15.53
2018-04-30T18:40:38.001Z,15.27
2018-04-30T18:43:42.200Z,13.50
2018-04-30T18:46:45.672Z,12.43
2018-04-30T18:49:49.083Z,14.67
2018-04-30T18:52:52.437Z,14.50
2018-04-30T18:55:55.770Z,13.43
2018-04-30T18:58:59.130Z,14.57
2018-04-30T19:02:02.714Z,15.13
2018-04-30T19:05:06.385Z,20.50
2018-04-30T19:08:10.053Z,18.13
2018-04-30T19:11:13.721Z,18.17
2018-04-30T19:14:17.267Z,19.03
2018-04-30T19:17:20.629Z,18.53
2018-04-30T19:20:23.993Z,19.30
2018-04-30T19:23:27.398Z,17.33
2018-04-30T19:26:42.480Z,16.50
2018-04-30T19:30:00.200Z,18.20
2018-04-30T19:33:15.159Z,17.30
2018-04-30T19:36:18.531Z,14.40
2018-04-30T19:39:21.894Z,14.57
2018-04-30T19:42:26.049Z,15.97
2018-04-30T19:45:29.457Z,15.33
2018-04-30T19:48:32.787Z,15.87
2018-04-30T19:51:36.352Z,15.10
2018-04-30T19:54:39.672Z,14.37
2018-04-30T19:57:42.992Z,15.97
2018-04-30T20:00:46.320Z,16.37
2018-04-30T20:03:49.645Z,16.30
2018-04-30T20:06:53.426Z,14.23
2018-04-30T20:09:57.170Z,13.90
2018-04-30T20:13:00.924Z,16.40
2018-04-30T20:16:04.742Z,14.40
2018-04-30T20:19:08.488Z,15.63
2018-04-30T20:22:11.867Z,16.33
2018-04-30T20:25:16.355Z,14.97
2018-04-30T20:28:19.690Z,16.20
2018-04-30T20:31:23.125Z,15.27
2018-04-30T20:34:27.560Z,15.37
2018-04-30T20:37:32.198Z,14.83
2018-04-30T20:40:35.647Z,15.43
2018-04-30T20:43:40.566Z,15.87
2018-04-30T20:46:45.067Z,14.60
2018-04-30T20:49:48.544Z,18.57
2018-04-30T20:52:51.895Z,17.17
2018-04-30T20:55:56.359Z,15.00
2018-04-30T20:58:59.802Z,15.27
2018-04-30T21:02:03.215Z,19.60
2018-04-30T21:05:06.536Z,18.70
2018-04-30T21:08:10.710Z,21.03
2018-04-30T21:11:14.116Z,19.67
2018-04-30T21:14:17.529Z,19.07
2018-04-30T21:17:20.953Z,19.03
2018-04-30T21:20:24.226Z,21.80
2018-04-30T21:23:27.566Z,19.50
2018-04-30T21:26:31.011Z,20.57
2018-04-30T21:29:34.405Z,26.17
2018-04-30T21:32:37.808Z,22.90
2018-04-30T21:35:41.167Z,22.30
2018-04-30T21:38:44.497Z,20.40
2018-04-30T21:41:47.812Z,23.27
2018-04-30T21:44:51.202Z,22.43
2018-04-30T21:47:54.599Z,19.80
2018-04-30T21:50:57.993Z,22.03
2018-04-30T21:54:01.319Z,19.70
2018-04-30T21:57:04.633Z,19.30
2018-04-30T22:00:08.814Z,21.37
2018-04-30T22:03:12.170Z,17.77
2018-04-30T22:06:15.497Z,17.97
2018-04-30T22:09:18.906Z,18.93
2018-04-30T22:12:22.315Z,19.03
2018-04-30T22:15:25.703Z,16.33
2018-04-30T22:18:29.118Z,17.17
2018-04-30T22:21:33.961Z,17.93
2018-04-30T22:24:37.282Z,18.73
2018-04-30T22:27:41.368Z,15.40
2018-04-30T22:30:44.667Z,17.57
2018-04-30T22:33:48.757Z,17.53
2018-04-30T22:36:52.173Z,17.30
2018-04-30T22:39:55.565Z,14.33
2018-04-30T22:42:58.882Z,14.53
2018-04-30T22:46:02.272Z,17.67
2018-04-30T22:49:05.682Z,12.83
2018-04-30T22:52:09.764Z,13.27
2018-04-30T22:55:13.067Z,13.17
2018-04-30T22:58:16.394Z,12.33
2018-04-30T23:01:19.727Z,11.87
2018-04-30T23:04:23.790Z,12.30
2018-04-30T23:07:27.109Z,11.07
2018-04-30T23:10:31.237Z,10.97
2018-04-30T23:13:34.543Z,9.17
2018-04-30T23:16:38.712Z,7.90
2018-04-30T23:19:42.021Z,7.43
2018-04-30T23:22:45.335Z,7.47
2018-04-30T23:25:48.741Z,7.87
2018-04-30T23:28:52.085Z,6.67
2018-04-30T23:31:55.422Z,6.67
2018-04-30T23:34:58.725Z,8.13
2018-04-30T23:38:02.038Z,11.50
2018-04-30T23:41:05.376Z,8.00
2018-04-30T23:44:08.707Z,8.37
2018-04-30T23:47:12.032Z,8.83
2018-04-30T23:50:15.419Z,8.27
2018-04-30T23:53:18.750Z,11.63
2018-04-30T23:56:22.828Z,9.87
2018-04-30T23:59:26.208Z,8.83
